createdAt,value
2023-05-16T00:00:31.274Z,98109.02
2023-05-16T00:11:04.552Z,98110.83
2023-05-16T00:21:31.198Z,98110.38
2023-05-16T00:31:56.965Z,98111.10
2023-05-16T00:42:23.560Z,98113.41
2023-05-16T00:52:49.695Z,98119.50
2023-05-16T01:03:15.608Z,98119.52
2023-05-16T01:13:51.166Z,98116.77
2023-05-16T01:24:32.217Z,98102.11
2023-05-16T01:34:58.024Z,98103.73
2023-05-16T01:45:28.294Z,98093.91
2023-05-16T01:55:58.348Z,98108.33
2023-05-16T02:06:25.957Z,98101.49
2023-05-16T02:16:52.727Z,98099.84
2023-05-16T02:27:18.390Z,98110.23
2023-05-16T02:37:44.550Z,98118.49
2023-05-16T02:48:10.261Z,98128.02
2023-05-16T02:58:36.331Z,98123.68
2023-05-16T03:09:02.359Z,98127.62
2023-05-16T03:19:28.427Z,98134.82
2023-05-16T03:29:54.187Z,98144.78
2023-05-16T03:40:20.023Z,98146.27
2023-05-16T03:50:46.232Z,98141.06
2023-05-16T04:01:12.132Z,98157.41
2023-05-16T04:11:39.124Z,98144.38
2023-05-16T04:22:04.876Z,98161.67
2023-05-16T04:32:30.783Z,98185.36
2023-05-16T04:42:56.853Z,98190.30
2023-05-16T04:53:23.016Z,98202.34
2023-05-16T05:03:48.703Z,98207.65
2023-05-16T05:14:14.248Z,98215.29
2023-05-16T05:24:39.978Z,98210.95
2023-05-16T05:35:06.677Z,98201.44
2023-05-16T05:45:32.755Z,98199.86
2023-05-16T05:55:58.156Z,98206.96
2023-05-16T06:06:24.384Z,98210.90
2023-05-16T06:16:50.487Z,98213.60
2023-05-16T06:27:16.437Z,98216.81
2023-05-16T06:37:43.139Z,98217.17
2023-05-16T06:48:10.463Z,98216.41
2023-05-16T06:58:59.089Z,98215.33
2023-05-16T07:09:22.522Z,98210.25
2023-05-16T07:19:48.744Z,98214.93
2023-05-16T07:30:17.511Z,98219.16
2023-05-16T07:40:43.487Z,98228.18
2023-05-16T07:51:09.479Z,98258.92
2023-05-16T08:01:35.452Z,98276.62
2023-05-16T08:12:03.970Z,98263.36
2023-05-16T08:22:30.550Z,98259.02
2023-05-16T08:32:56.057Z,98274.09
2023-05-16T08:43:22.256Z,98279.48
2023-05-16T08:53:51.971Z,98258.19
2023-05-16T09:04:19.247Z,98267.77
2023-05-16T09:14:47.616Z,98277.90
2023-05-16T09:25:29.188Z,98259.64
2023-05-16T09:36:00.644Z,98263.40
2023-05-16T09:46:29.742Z,98272.02
2023-05-16T09:56:55.396Z,98263.05
2023-05-16T10:07:23.090Z,98255.55
2023-05-16T10:17:54.711Z,98258.60
2023-05-16T10:28:20.242Z,98253.83
2023-05-16T10:38:49.205Z,98248.71
2023-05-16T10:49:25.975Z,98252.05
2023-05-16T10:59:54.372Z,98238.91
2023-05-16T11:10:22.581Z,98242.84
2023-05-16T11:20:53.105Z,98232.79
2023-05-16T11:31:21.272Z,98216.45
2023-05-16T11:41:57.109Z,98218.92
2023-05-16T11:52:21.874Z,98222.39
2023-05-16T12:02:49.245Z,98224.43
2023-05-16T12:13:15.648Z,98223.59
2023-05-16T12:23:43.114Z,98220.37
2023-05-16T12:34:18.313Z,98208.73
2023-05-16T12:44:47.847Z,98193.16
2023-05-16T12:55:14.707Z,98190.58
2023-05-16T13:05:41.270Z,98187.65
2023-05-16T13:16:07.777Z,98180.02
2023-05-16T13:26:34.113Z,98171.58
2023-05-16T13:37:00.111Z,98158.86
2023-05-16T13:47:26.301Z,98148.88
2023-05-16T13:57:51.842Z,98154.58
2023-05-16T14:08:17.546Z,98172.17
2023-05-16T14:18:44.414Z,98178.86
2023-05-16T14:29:10.002Z,98183.27
2023-05-16T14:39:35.965Z,98201.00
2023-05-16T14:50:02.091Z,98209.62
2023-05-16T15:00:28.456Z,98230.18
2023-05-16T15:10:54.642Z,98241.88
2023-05-16T15:21:21.009Z,98240.54
2023-05-16T15:31:46.703Z,98232.40
2023-05-16T15:42:12.675Z,98221.52
2023-05-16T15:52:38.623Z,98218.56
2023-05-16T16:03:04.590Z,98223.79
2023-05-16T16:13:31.213Z,98224.00
2023-05-16T16:23:57.247Z,98226.84
2023-05-16T16:34:23.441Z,98233.39
2023-05-16T16:44:49.395Z,98234.10
2023-05-16T16:55:15.240Z,98234.90
2023-05-16T17:05:42.246Z,98250.45
2023-05-16T17:16:10.729Z,98252.52
2023-05-16T17:26:36.871Z,98251.16
2023-05-16T17:37:04.263Z,98254.29
2023-05-16T17:47:31.820Z,98248.42
2023-05-16T17:57:58.495Z,98249.09
2023-05-16T18:08:24.369Z,98262.58
2023-05-16T18:18:50.212Z,98277.40
2023-05-16T18:29:16.028Z,98272.28
2023-05-16T18:39:43.816Z,98277.58
2023-05-16T18:50:11.919Z,98299.61
2023-05-16T19:00:37.673Z,98310.30
2023-05-16T19:11:03.775Z,98307.11
2023-05-16T19:21:29.776Z,98304.64
2023-05-16T19:31:56.383Z,98304.90
2023-05-16T19:42:22.148Z,98321.55
2023-05-16T19:52:47.689Z,98316.40
2023-05-16T20:03:14.119Z,98300.83
2023-05-16T20:13:40.337Z,98292.08
2023-05-16T20:24:07.093Z,98298.57
2023-05-16T20:34:33.060Z,98300.58
2023-05-16T20:44:59.072Z,98283.48
2023-05-16T20:55:26.161Z,98261.30
2023-05-16T21:05:52.046Z,98243.87
2023-05-16T21:16:18.208Z,98240.40
2023-05-16T21:26:43.961Z,98238.91
2023-05-16T21:37:11.875Z,98239.95
2023-05-16T21:47:38.282Z,98229.92
2023-05-16T21:58:04.185Z,98229.71
2023-05-16T22:08:30.169Z,98233.91
2023-05-16T22:18:56.329Z,98239.02
2023-05-16T22:29:22.187Z,98246.04
2023-05-16T22:39:47.758Z,98254.77
2023-05-16T22:50:14.501Z,98260.95
2023-05-16T23:00:40.511Z,98242.98
2023-05-16T23:11:06.738Z,98260.23
2023-05-16T23:21:32.670Z,98276.54
2023-05-16T23:31:58.236Z,98271.29
2023-05-16T23:42:24.169Z,98268.73
2023-05-16T23:52:50.380Z,98285.77
